Time;durP1;ratioP1;P1;durP2;ratioP2;P2;SDS_P1;SDS_P2;PMS_P1;PMS_P2;Temp;Humidity;BMP_temperature;BMP_pressure;BME280_temperature;BME280_humidity;BME280_pressure;Samples;Min_cycle;Max_cycle;Signal;HPM_P1;HPM_P2
2021/11/02 00:02:12;;;;;;;;;;;11.10;52.40;;;;;;4372902;32;20045;-39
2021/11/02 00:04:39;;;;;;;;;;;11.10;52.10;;;;;;4375359;32;19982;-39
2021/11/02 00:07:05;;;;;;;;;;;11.00;51.80;;;;;;4376249;32;20366;-41
2021/11/02 00:09:35;;;;;;;;;;;10.90;51.40;;;;;;4374127;32;19962;-40
2021/11/02 00:12:01;;;;;;;;;;;10.80;51.30;;;;;;4374625;32;20033;-40
2021/11/02 00:14:29;;;;;;;;;;;10.70;51.20;;;;;;4376106;32;19977;-39
2021/11/02 00:16:59;;;;;;;;;;;10.60;51.30;;;;;;4375333;32;20402;-40
2021/11/02 00:19:27;;;;;;;;;;;10.50;51.80;;;;;;4380457;32;19973;-40
2021/11/02 00:21:57;;;;;;;;;;;10.40;52.90;;;;;;4391142;32;19965;-41
2021/11/02 00:27:01;;;;;;;;;;;10.20;53.90;;;;;;4390819;32;19977;-40
2021/11/02 00:29:27;;;;;;;;;;;10.10;54.50;;;;;;4390899;32;19962;-39
2021/11/02 00:31:54;;;;;;;;;;;10.00;55.50;;;;;;4391088;32;19954;-39
2021/11/02 00:34:20;;;;;;;;;;;9.90;56.00;;;;;;4390419;32;19981;-40
2021/11/02 00:36:46;;;;;;;;;;;9.90;56.60;;;;;;4390702;32;19965;-41
2021/11/02 00:39:12;;;;;;;;;;;9.90;57.10;;;;;;4390149;32;19980;-41
2021/11/02 00:41:39;;;;;;;;;;;10.00;57.40;;;;;;4390489;32;19980;-39
2021/11/02 00:44:07;;;;;;;;;;;10.00;57.60;;;;;;4390432;32;20062;-40
2021/11/02 00:46:36;;;;;;;;;;;10.10;57.80;;;;;;4378832;32;19980;-40
2021/11/02 00:49:03;;;;;;;;;;;10.10;58.10;;;;;;4375571;32;19981;-41
2021/11/02 00:51:29;;;;;;;;;;;10.20;58.40;;;;;;4375350;32;20406;-40
2021/11/02 00:53:56;;;;;;;;;;;10.20;58.40;;;;;;4375516;32;19962;-41
2021/11/02 00:56:22;;;;;;;;;;;10.30;58.50;;;;;;4361418;32;20067;-39
2021/11/02 00:58:48;;;;;;;;;;;10.30;58.60;;;;;;4375103;32;19976;-41
2021/11/02 01:01:15;;;;;;;;;;;10.40;59.20;;;;;;4374718;32;20051;-41
2021/11/02 01:03:41;;;;;;;;;;;10.40;58.60;;;;;;4361598;32;20041;-39
2021/11/02 01:06:07;;;;;;;;;;;10.50;58.70;;;;;;4375408;32;19955;-40
2021/11/02 01:08:33;;;;;;;;;;;10.50;58.80;;;;;;4374992;32;19994;-39
2021/11/02 01:11:00;;;;;;;;;;;10.50;58.80;;;;;;4374989;32;19977;-39
2021/11/02 01:13:27;;;;;;;;;;;10.50;58.90;;;;;;4375263;32;19985;-40
2021/11/02 01:15:54;;;;;;;;;;;10.50;59.00;;;;;;4374699;32;19962;-40
2021/11/02 01:18:20;;;;;;;;;;;10.40;59.10;;;;;;4374618;32;19985;-40
2021/11/02 01:20:46;;;;;;;;;;;10.40;59.30;;;;;;4374692;32;20616;-41
2021/11/02 01:23:14;;;;;;;;;;;10.40;60.00;;;;;;4375008;32;19981;-40
2021/11/02 01:25:40;;;;;;;;;;;10.40;59.40;;;;;;4374746;32;20587;-40
2021/11/02 01:28:06;;;;;;;;;;;10.40;59.50;;;;;;4374794;32;20063;-40
2021/11/02 01:30:32;;;;;;;;;;;10.50;59.60;;;;;;4375025;32;20070;-40
2021/11/02 01:33:00;;;;;;;;;;;10.50;59.70;;;;;;4374779;32;19965;-39
2021/11/02 01:35:26;;;;;;;;;;;10.50;59.60;;;;;;4375058;32;19988;-40
2021/11/02 01:37:53;;;;;;;;;;;10.60;59.40;;;;;;4374534;32;19982;-39
2021/11/02 01:40:20;;;;;;;;;;;10.60;59.20;;;;;;4360359;32;19989;-41
2021/11/02 01:42:50;;;;;;;;;;;10.70;59.10;;;;;;4374606;32;19958;-41
2021/11/02 01:45:17;;;;;;;;;;;10.70;58.90;;;;;;4374160;32;20455;-40
2021/11/02 01:47:45;;;;;;;;;;;10.80;58.80;;;;;;4374339;32;19966;-40
2021/11/02 01:50:12;;;;;;;;;;;10.80;58.70;;;;;;4374548;32;19968;-40
2021/11/02 01:52:38;;;;;;;;;;;10.80;58.60;;;;;;4374583;32;20049;-40
2021/11/02 01:55:05;;;;;;;;;;;10.80;58.50;;;;;;4374230;32;19980;-40
2021/11/02 01:57:31;;;;;;;;;;;10.80;58.50;;;;;;4373985;32;20370;-39
2021/11/02 01:59:58;;;;;;;;;;;10.80;58.40;;;;;;4372730;32;19977;-41
2021/11/02 02:02:33;;;;;;;;;;;10.80;58.50;;;;;;4372578;32;20035;-41
2021/11/02 02:05:27;;;;;;;;;;;10.80;58.20;;;;;;4374324;32;19986;-41
2021/11/02 02:08:19;;;;;;;;;;;10.80;58.10;;;;;;4373078;32;19954;-41
2021/11/02 02:11:10;;;;;;;;;;;10.80;57.90;;;;;;4372315;32;20043;-40
2021/11/02 02:14:20;;;;;;;;;;;10.80;57.80;;;;;;4374220;32;19985;-40
2021/11/02 02:16:47;;;;;;;;;;;10.90;57.80;;;;;;4362397;32;19971;-39
2021/11/02 02:19:46;;;;;;;;;;;10.80;57.60;;;;;;4372414;32;19962;-41
2021/11/02 02:22:50;;;;;;;;;;;10.80;57.60;;;;;;4368362;32;20576;-40
2021/11/02 02:25:22;;;;;;;;;;;10.80;57.60;;;;;;4373939;32;19966;-40
2021/11/02 02:28:14;;;;;;;;;;;10.80;57.50;;;;;;4372385;32;19974;-40
2021/11/02 02:30:45;;;;;;;;;;;10.90;57.60;;;;;;4372660;32;19981;-40
2021/11/02 02:33:11;;;;;;;;;;;11.00;58.20;;;;;;4373837;32;19971;-40
2021/11/02 02:35:37;;;;;;;;;;;11.00;57.30;;;;;;4372689;32;19970;-41
2021/11/02 02:38:06;;;;;;;;;;;11.10;57.10;;;;;;4372200;32;19997;-39
2021/11/02 02:40:33;;;;;;;;;;;11.10;56.90;;;;;;4360116;32;20365;-38
2021/11/02 02:43:00;;;;;;;;;;;11.20;56.70;;;;;;4374050;32;20417;-40
2021/11/02 02:45:26;;;;;;;;;;;11.20;56.50;;;;;;4373627;32;20106;-40
2021/11/02 02:47:52;;;;;;;;;;;11.20;56.50;;;;;;4359883;32;20075;-40
2021/11/02 02:50:19;;;;;;;;;;;11.20;56.40;;;;;;4359725;32;19958;-41
2021/11/02 02:52:46;;;;;;;;;;;11.30;56.30;;;;;;4374077;32;20465;-40
2021/11/02 02:55:12;;;;;;;;;;;11.30;56.10;;;;;;4359865;32;20402;-40
2021/11/02 02:57:38;;;;;;;;;;;11.30;55.90;;;;;;4343497;32;19985;-40
2021/11/02 03:00:05;;;;;;;;;;;11.40;55.90;;;;;;4343608;32;19966;-40
2021/11/02 03:02:32;;;;;;;;;;;11.40;55.70;;;;;;4356563;32;20018;-40
2021/11/02 03:05:00;;;;;;;;;;;11.40;55.60;;;;;;4344198;32;19971;-40
2021/11/02 03:07:26;;;;;;;;;;;11.40;55.50;;;;;;4356383;32;19970;-40
2021/11/02 03:09:52;;;;;;;;;;;11.50;55.50;;;;;;4343697;32;19963;-40
2021/11/02 03:12:25;;;;;;;;;;;11.50;55.40;;;;;;4343771;32;20067;-40
2021/11/02 03:17:51;;;;;;;;;;;11.50;55.20;;;;;;4355779;32;20015;-40
2021/11/02 03:55:59;;;;;;;;;;;11.50;54.70;;;;;;4363730;32;20343;-40
2021/11/02 03:58:27;;;;;;;;;;;11.50;54.80;;;;;;4364075;32;19980;-40
2021/11/02 04:01:15;;;;;;;;;;;11.40;54.90;;;;;;4362887;32;19977;-40
2021/11/02 04:23:41;;;;;;;;;;;11.50;54.90;;;;;;4390983;32;19958;-40
2021/11/02 04:28:55;;;;;;;;;;;11.50;54.70;;;;;;4390491;32;19993;-41
2021/11/02 04:45:17;;;;;;;;;;;11.60;54.30;;;;;;4347406;32;19975;-41
2021/11/02 05:07:08;;;;;;;;;;;11.80;54.00;;;;;;4332096;33;20026;-40
2021/11/02 05:46:44;;;;;;;;;;;12.00;53.50;;;;;;4327673;33;20105;-40
2021/11/02 05:55:57;;;;;;;;;;;12.20;52.80;;;;;;4374118;32;20045;-40
2021/11/02 05:58:36;;;;;;;;;;;12.20;52.90;;;;;;4374139;32;19970;-40
2021/11/02 06:01:11;;;;;;;;;;;12.20;52.90;;;;;;4373138;32;19985;-40
2021/11/02 06:06:22;;;;;;;;;;;12.40;52.80;;;;;;4373938;32;20104;-40
2021/11/02 06:09:26;;;;;;;;;;;12.40;52.60;;;;;;4372659;32;20020;-40
2021/11/02 06:29:04;;;;;;;;;;;12.60;51.90;;;;;;4341436;33;19970;-43
2021/11/02 06:31:33;;;;;;;;;;;12.70;51.80;;;;;;4341720;33;20525;-42
2021/11/02 06:56:40;;;;;;;;;;;13.20;50.80;;;;;;4340362;33;19990;-42
2021/11/02 07:18:48;;;;;;;;;;;13.90;47.40;;;;;;4376219;32;20055;-41
2021/11/02 07:21:23;;;;;;;;;;;13.90;47.30;;;;;;4362126;32;19981;-41
2021/11/02 07:24:03;;;;;;;;;;;14.00;47.00;;;;;;4376852;32;20041;-43
2021/11/02 08:47:17;;;;;;;;;;;15.30;42.50;;;;;;4374594;32;20008;-43
2021/11/02 08:49:45;;;;;;;;;;;15.40;42.50;;;;;;4375166;32;20460;-42
2021/11/02 08:52:13;;;;;;;;;;;15.40;42.40;;;;;;4374839;32;19974;-43
2021/11/02 08:54:41;;;;;;;;;;;15.40;42.50;;;;;;4374904;32;20153;-42
2021/11/02 08:57:08;;;;;;;;;;;15.50;42.50;;;;;;4374655;32;20036;-42
2021/11/02 08:59:34;;;;;;;;;;;15.60;42.20;;;;;;4374996;32;19974;-43
2021/11/02 09:02:02;;;;;;;;;;;15.60;42.00;;;;;;4374562;32;19970;-41
2021/11/02 09:04:29;;;;;;;;;;;15.60;42.10;;;;;;4374585;32;19969;-42
2021/11/02 09:06:56;;;;;;;;;;;15.60;42.20;;;;;;4374481;32;20071;-43
2021/11/02 09:09:22;;;;;;;;;;;15.50;42.10;;;;;;4349143;32;20040;-42
2021/11/02 09:11:48;;;;;;;;;;;15.50;42.40;;;;;;4360912;32;19978;-42
2021/11/02 09:14:16;;;;;;;;;;;15.50;42.40;;;;;;4374756;32;19986;-42
2021/11/02 09:16:45;;;;;;;;;;;15.50;42.50;;;;;;4374475;32;19974;-43
2021/11/02 09:19:12;;;;;;;;;;;15.50;42.50;;;;;;4360930;32;19970;-43
2021/11/02 09:21:39;;;;;;;;;;;15.50;42.40;;;;;;4360487;32;20411;-42
2021/11/02 09:24:05;;;;;;;;;;;15.60;42.50;;;;;;4374337;32;19977;-44
2021/11/02 09:26:32;;;;;;;;;;;15.60;42.20;;;;;;4374143;32;19962;-43
2021/11/02 09:29:01;;;;;;;;;;;15.60;42.10;;;;;;4374173;32;19974;-42
2021/11/02 09:31:27;;;;;;;;;;;15.50;41.80;;;;;;4360654;32;20425;-42
2021/11/02 09:33:53;;;;;;;;;;;15.50;42.20;;;;;;4360860;32;19970;-42
2021/11/02 09:36:21;;;;;;;;;;;15.30;42.40;;;;;;4373368;32;20415;-42
2021/11/02 09:38:54;;;;;;;;;;;15.30;42.60;;;;;;4372929;32;19973;-42
2021/11/02 09:41:34;;;;;;;;;;;15.20;42.90;;;;;;4360543;32;20406;-41
2021/11/02 09:44:23;;;;;;;;;;;15.10;43.40;;;;;;4374118;32;19966;-42
2021/11/02 09:47:02;;;;;;;;;;;15.10;43.80;;;;;;4387931;32;19977;-43
2021/11/02 09:49:50;;;;;;;;;;;15.10;43.70;;;;;;4388939;32;20413;-43
2021/11/02 09:52:40;;;;;;;;;;;15.10;43.80;;;;;;4389167;32;19981;-42
2021/11/02 09:55:40;;;;;;;;;;;15.00;43.80;;;;;;4388764;32;20386;-43
2021/11/02 09:58:17;;;;;;;;;;;14.90;43.80;;;;;;4374783;32;20467;-43
2021/11/02 10:00:54;;;;;;;;;;;14.80;44.10;;;;;;4389376;32;19966;-43
2021/11/02 10:03:41;;;;;;;;;;;14.90;44.10;;;;;;4389295;32;20002;-43
2021/11/02 10:06:22;;;;;;;;;;;14.90;44.00;;;;;;4389377;32;20033;-43
2021/11/02 10:09:08;;;;;;;;;;;14.90;43.90;;;;;;4389025;32;19958;-45
2021/11/02 10:12:00;;;;;;;;;;;14.80;43.20;;;;;;4389301;32;20405;-43
2021/11/02 10:14:32;;;;;;;;;;;14.90;43.10;;;;;;4374968;32;19981;-42
2021/11/02 10:17:01;;;;;;;;;;;15.00;43.00;;;;;;4375048;32;20378;-44
2021/11/02 10:19:44;;;;;;;;;;;15.20;42.70;;;;;;4388992;32;19958;-37
2021/11/02 10:22:17;;;;;;;;;;;15.20;41.90;;;;;;4376028;32;20074;-43
2021/11/02 10:25:04;;;;;;;;;;;15.30;41.50;;;;;;4388838;32;20065;-42
2021/11/02 10:27:45;;;;;;;;;;;15.30;41.60;;;;;;4388900;32;19957;-42
2021/11/02 10:30:30;;;;;;;;;;;15.30;41.50;;;;;;4388386;32;19966;-42
2021/11/02 10:33:33;;;;;;;;;;;15.40;41.00;;;;;;4375306;32;19984;-43
2021/11/02 10:36:35;;;;;;;;;;;15.40;40.80;;;;;;4370003;32;19969;-40
2021/11/02 10:39:11;;;;;;;;;;;15.40;40.70;;;;;;4389109;32;20005;-43
2021/11/02 10:42:09;;;;;;;;;;;15.40;40.50;;;;;;4388635;32;19965;-42
2021/11/02 10:44:46;;;;;;;;;;;15.30;40.60;;;;;;4388727;32;19977;-42
2021/11/02 10:47:20;;;;;;;;;;;15.20;40.70;;;;;;4373449;32;20003;-42
2021/11/02 10:50:06;;;;;;;;;;;15.30;40.90;;;;;;4359163;32;19969;-43
2021/11/02 10:52:33;;;;;;;;;;;15.40;40.70;;;;;;4373849;32;20355;-43
2021/11/02 10:55:18;;;;;;;;;;;15.50;40.50;;;;;;4359816;32;19982;-43
2021/11/02 10:58:05;;;;;;;;;;;15.60;40.40;;;;;;4373359;32;20374;-44
2021/11/02 11:00:32;;;;;;;;;;;15.60;40.20;;;;;;4373399;32;20006;-42
2021/11/02 11:02:59;;;;;;;;;;;15.50;40.00;;;;;;4373154;32;19969;-43
2021/11/02 11:05:26;;;;;;;;;;;15.50;40.30;;;;;;4359402;32;19966;-43
2021/11/02 11:07:52;;;;;;;;;;;15.50;40.50;;;;;;4373123;32;19962;-43
2021/11/02 11:10:18;;;;;;;;;;;15.50;40.20;;;;;;4373550;32;19965;-42
2021/11/02 11:12:54;;;;;;;;;;;15.40;40.30;;;;;;4373095;32;19950;-43
2021/11/02 11:15:20;;;;;;;;;;;15.30;40.30;;;;;;4360001;32;20459;-43
2021/11/02 11:17:54;;;;;;;;;;;15.10;40.60;;;;;;4373335;32;20046;-43
2021/11/02 11:20:24;;;;;;;;;;;15.00;40.80;;;;;;4372757;32;19961;-42
2021/11/02 11:22:51;;;;;;;;;;;14.90;41.00;;;;;;4373092;32;20378;-43
2021/11/02 11:25:44;;;;;;;;;;;14.90;41.20;;;;;;4372997;32;19966;-43
2021/11/02 11:28:12;;;;;;;;;;;14.80;41.40;;;;;;4372241;32;19966;-42
2021/11/02 11:30:40;;;;;;;;;;;14.80;41.50;;;;;;4372773;32;20523;-43
2021/11/02 11:33:14;;;;;;;;;;;14.70;41.50;;;;;;4372454;32;20098;-42
2021/11/02 11:35:43;;;;;;;;;;;14.70;41.70;;;;;;4373314;32;20376;-43
2021/11/02 11:38:11;;;;;;;;;;;14.60;41.60;;;;;;4371622;32;19986;-43
2021/11/02 11:40:39;;;;;;;;;;;14.60;41.90;;;;;;4373028;32;19965;-41
2021/11/02 11:43:06;;;;;;;;;;;14.50;41.90;;;;;;4373008;32;19970;-44
2021/11/02 11:45:34;;;;;;;;;;;14.60;42.20;;;;;;4346451;32;20042;-38
2021/11/02 11:48:21;;;;;;;;;;;14.60;42.70;;;;;;4372982;32;19977;-45
2021/11/02 11:50:48;;;;;;;;;;;14.70;42.10;;;;;;4359566;32;19977;-43
2021/11/02 11:53:18;;;;;;;;;;;14.80;42.00;;;;;;4372801;32;19985;-43
2021/11/02 11:55:47;;;;;;;;;;;14.90;41.90;;;;;;4358868;32;19962;-42
2021/11/02 11:58:14;;;;;;;;;;;15.00;41.40;;;;;;4372745;32;19962;-43
2021/11/02 12:00:43;;;;;;;;;;;15.00;41.30;;;;;;4374980;32;20054;-43
2021/11/02 12:03:27;;;;;;;;;;;14.90;41.30;;;;;;4375631;32;20042;-43
2021/11/02 12:06:11;;;;;;;;;;;14.90;41.50;;;;;;4375683;32;21086;-43
2021/11/02 12:09:06;;;;;;;;;;;14.80;41.50;;;;;;4362686;32;19966;-43
2021/11/02 12:11:33;;;;;;;;;;;14.70;41.80;;;;;;4370897;32;19958;-44
2021/11/02 12:14:20;;;;;;;;;;;14.50;42.00;;;;;;4349644;32;19958;-43
2021/11/02 12:16:46;;;;;;;;;;;14.50;42.20;;;;;;4374992;32;19985;-44
2021/11/02 12:19:20;;;;;;;;;;;14.50;42.40;;;;;;4375393;32;20403;-43
2021/11/02 12:22:03;;;;;;;;;;;14.60;42.50;;;;;;4361716;32;19978;-44
2021/11/02 12:24:31;;;;;;;;;;;14.60;42.40;;;;;;4375796;32;20375;-43
2021/11/02 12:26:57;;;;;;;;;;;14.60;42.30;;;;;;4375105;32;20381;-44
2021/11/02 12:29:25;;;;;;;;;;;14.60;42.30;;;;;;4375309;32;19988;-43
2021/11/02 12:31:58;;;;;;;;;;;14.50;42.30;;;;;;4361544;32;19957;-45
2021/11/02 12:34:26;;;;;;;;;;;14.50;42.50;;;;;;4375262;32;19966;-43
2021/11/02 12:36:54;;;;;;;;;;;14.40;42.60;;;;;;4375149;32;19969;-42
2021/11/02 12:39:25;;;;;;;;;;;14.40;42.70;;;;;;4375070;32;20421;-42
2021/11/02 12:41:53;;;;;;;;;;;14.30;42.80;;;;;;4374769;32;20066;-44
2021/11/02 12:44:24;;;;;;;;;;;14.20;42.90;;;;;;4375133;32;19965;-43
2021/11/02 12:46:50;;;;;;;;;;;14.10;43.10;;;;;;4374824;32;19989;-43
2021/11/02 12:49:24;;;;;;;;;;;14.10;43.30;;;;;;4374744;32;20051;-43
2021/11/02 12:51:53;;;;;;;;;;;14.00;43.40;;;;;;4373146;32;20411;-43
2021/11/02 12:54:22;;;;;;;;;;;13.90;43.40;;;;;;4374527;32;19986;-41
2021/11/02 12:56:54;;;;;;;;;;;14.00;43.70;;;;;;4356693;32;19977;-43
2021/11/02 12:59:23;;;;;;;;;;;14.00;43.60;;;;;;4357183;32;20055;-41
2021/11/02 13:01:50;;;;;;;;;;;14.10;43.40;;;;;;4357001;32;20539;-42
2021/11/02 13:04:16;;;;;;;;;;;14.00;43.30;;;;;;4357120;32;20363;-43
2021/11/02 13:06:50;;;;;;;;;;;14.10;43.40;;;;;;4357027;32;19993;-41
2021/11/02 13:09:24;;;;;;;;;;;14.00;43.40;;;;;;4357060;32;19982;-42
2021/11/02 13:12:00;;;;;;;;;;;13.90;43.50;;;;;;4356494;32;19962;-42
2021/11/02 13:14:55;;;;;;;;;;;13.90;43.80;;;;;;4357365;32;20088;-43
2021/11/02 13:17:24;;;;;;;;;;;13.90;43.90;;;;;;4346637;32;19998;-43
2021/11/02 13:19:53;;;;;;;;;;;13.80;43.90;;;;;;4345013;32;19970;-44
2021/11/02 13:22:20;;;;;;;;;;;13.90;44.00;;;;;;4344486;32;19958;-42
2021/11/02 13:25:02;;;;;;;;;;;13.90;43.80;;;;;;4357352;32;19982;-43
2021/11/02 13:27:35;;;;;;;;;;;14.00;43.90;;;;;;4363199;32;19973;-43
2021/11/02 13:30:37;;;;;;;;;;;14.00;43.80;;;;;;4374372;32;20361;-41
2021/11/02 13:33:04;;;;;;;;;;;14.00;43.70;;;;;;4374153;32;19974;-39
2021/11/02 13:35:38;;;;;;;;;;;13.90;43.90;;;;;;4374466;32;19973;-42
2021/11/02 13:38:27;;;;;;;;;;;13.90;44.00;;;;;;4374599;32;19970;-41
2021/11/02 13:40:59;;;;;;;;;;;13.90;44.10;;;;;;4374569;32;19966;-43
2021/11/02 13:43:32;;;;;;;;;;;13.90;44.10;;;;;;4373959;32;20411;-44
2021/11/02 13:45:58;;;;;;;;;;;13.80;44.20;;;;;;4374126;32;19966;-40
2021/11/02 13:48:26;;;;;;;;;;;13.90;44.30;;;;;;4374369;32;19973;-42
2021/11/02 13:50:54;;;;;;;;;;;13.80;44.50;;;;;;4360597;32;20055;-42
2021/11/02 13:53:22;;;;;;;;;;;13.80;44.60;;;;;;4373829;32;20382;-42
2021/11/02 13:55:49;;;;;;;;;;;13.70;44.50;;;;;;4374176;32;19962;-42
2021/11/02 13:58:15;;;;;;;;;;;13.80;44.60;;;;;;4373721;32;19958;-42
2021/11/02 14:00:42;;;;;;;;;;;13.70;44.60;;;;;;4360113;32;19969;-41
2021/11/02 14:03:14;;;;;;;;;;;13.80;44.70;;;;;;4360318;32;19962;-42
2021/11/02 14:05:40;;;;;;;;;;;13.80;44.60;;;;;;4360675;32;20379;-43
2021/11/02 14:08:07;;;;;;;;;;;13.80;44.60;;;;;;4359943;32;19970;-42
2021/11/02 14:10:33;;;;;;;;;;;13.70;44.70;;;;;;4373719;32;19970;-43
2021/11/02 14:12:59;;;;;;;;;;;13.70;44.90;;;;;;4373579;32;19962;-43
2021/11/02 14:15:30;;;;;;;;;;;13.70;45.10;;;;;;4347314;32;20376;-42
2021/11/02 14:18:07;;;;;;;;;;;13.70;45.20;;;;;;4373895;32;19978;-43
2021/11/02 14:20:33;;;;;;;;;;;13.70;45.30;;;;;;4373499;32;20063;-43
2021/11/02 14:23:00;;;;;;;;;;;13.60;45.30;;;;;;4373803;32;19970;-42
2021/11/02 14:25:34;;;;;;;;;;;13.60;45.40;;;;;;4360071;32;19972;-43
2021/11/02 14:28:00;;;;;;;;;;;13.50;45.50;;;;;;4373362;32;20406;-42
2021/11/02 14:30:33;;;;;;;;;;;13.50;45.70;;;;;;4373363;32;19967;-44
2021/11/02 14:33:11;;;;;;;;;;;13.40;45.70;;;;;;4373312;32;19954;-43
2021/11/02 14:36:03;;;;;;;;;;;13.40;46.00;;;;;;4373637;32;20453;-43
2021/11/02 14:38:50;;;;;;;;;;;13.40;46.10;;;;;;4373200;32;19969;-42
2021/11/02 14:41:33;;;;;;;;;;;13.30;46.10;;;;;;4359172;32;19974;-42
2021/11/02 14:44:17;;;;;;;;;;;13.30;46.20;;;;;;4373218;32;19973;-44
2021/11/02 14:46:47;;;;;;;;;;;13.30;46.20;;;;;;4373064;32;20424;-42
2021/11/02 14:49:29;;;;;;;;;;;13.30;46.30;;;;;;4371861;32;20057;-37
2021/11/02 14:51:56;;;;;;;;;;;13.30;46.40;;;;;;4373050;32;19970;-43
2021/11/02 14:54:29;;;;;;;;;;;13.30;46.50;;;;;;4373299;32;20378;-42
2021/11/02 14:57:20;;;;;;;;;;;13.30;46.60;;;;;;4373259;32;19978;-43
2021/11/02 14:59:57;;;;;;;;;;;13.30;46.60;;;;;;4373117;32;19989;-42
2021/11/02 15:02:34;;;;;;;;;;;13.30;46.80;;;;;;4372106;32;20010;-44
2021/11/02 15:05:05;;;;;;;;;;;13.20;46.80;;;;;;4373124;32;19998;-43
2021/11/02 15:07:32;;;;;;;;;;;13.20;47.20;;;;;;4373202;32;19972;-42
2021/11/02 15:09:58;;;;;;;;;;;13.20;47.20;;;;;;4373028;32;20037;-43
2021/11/02 15:12:24;;;;;;;;;;;13.20;47.50;;;;;;4371328;32;19961;-43
2021/11/02 15:14:51;;;;;;;;;;;13.20;47.50;;;;;;4373101;32;19989;-43
2021/11/02 15:17:18;;;;;;;;;;;13.20;47.70;;;;;;4373443;32;19966;-42
2021/11/02 15:19:45;;;;;;;;;;;13.10;47.80;;;;;;4379863;32;20034;-42
2021/11/02 15:22:13;;;;;;;;;;;13.10;47.90;;;;;;4374017;32;20397;-43
2021/11/02 15:24:41;;;;;;;;;;;13.00;48.10;;;;;;4388315;32;19977;-43
2021/11/02 15:27:15;;;;;;;;;;;13.00;48.30;;;;;;4388338;32;20030;-43
2021/11/02 15:29:45;;;;;;;;;;;13.00;48.30;;;;;;4388817;32;19961;-43
2021/11/02 15:32:19;;;;;;;;;;;13.00;48.50;;;;;;4374528;32;19962;-43
2021/11/02 15:34:48;;;;;;;;;;;13.00;48.40;;;;;;4389509;32;20439;-44
2021/11/02 15:37:26;;;;;;;;;;;13.00;48.40;;;;;;4391324;32;20486;-43
2021/11/02 15:40:00;;;;;;;;;;;13.00;48.40;;;;;;4391054;32;20004;-42
2021/11/02 15:42:29;;;;;;;;;;;13.10;48.40;;;;;;4391153;32;20535;-43
2021/11/02 15:45:00;;;;;;;;;;;13.10;48.20;;;;;;4389603;32;19985;-41
2021/11/02 15:47:27;;;;;;;;;;;13.10;48.20;;;;;;4375913;32;19969;-43
2021/11/02 15:49:55;;;;;;;;;;;13.10;48.20;;;;;;4375763;32;19980;-43
2021/11/02 15:52:21;;;;;;;;;;;13.10;48.40;;;;;;4375723;32;19981;-43
2021/11/02 15:54:48;;;;;;;;;;;13.10;48.30;;;;;;4375501;32;19966;-40
2021/11/02 15:57:14;;;;;;;;;;;13.10;48.30;;;;;;4376140;32;20062;-42
2021/11/02 15:59:40;;;;;;;;;;;13.10;48.30;;;;;;4376061;32;19993;-42
2021/11/02 16:02:06;;;;;;;;;;;13.10;48.30;;;;;;4387159;32;19959;-44
2021/11/02 16:04:33;;;;;;;;;;;13.20;48.40;;;;;;4375391;32;20499;-43
2021/11/02 16:07:09;;;;;;;;;;;13.20;48.30;;;;;;4376162;32;20493;-43
2021/11/02 16:09:54;;;;;;;;;;;13.20;48.30;;;;;;4375508;32;19966;-43
2021/11/02 16:12:29;;;;;;;;;;;13.20;48.20;;;;;;4361867;32;20049;-43
2021/11/02 16:15:23;;;;;;;;;;;13.20;48.30;;;;;;4375740;32;19969;-43
2021/11/02 16:17:52;;;;;;;;;;;13.20;48.20;;;;;;4369337;32;20120;-43
2021/11/02 16:20:31;;;;;;;;;;;13.20;48.20;;;;;;4359776;32;20386;-38
2021/11/02 16:22:59;;;;;;;;;;;13.20;48.20;;;;;;4362285;32;19972;-43
2021/11/02 16:25:29;;;;;;;;;;;13.20;48.30;;;;;;4375465;32;20457;-42
2021/11/02 16:27:57;;;;;;;;;;;13.20;48.20;;;;;;4375688;32;19962;-43
2021/11/02 16:30:25;;;;;;;;;;;13.20;48.20;;;;;;4375426;32;20405;-42
2021/11/02 16:32:52;;;;;;;;;;;13.20;48.30;;;;;;4375249;32;20515;-41
2021/11/02 16:35:39;;;;;;;;;;;13.20;48.20;;;;;;4375121;32;20394;-43
2021/11/02 16:38:23;;;;;;;;;;;13.20;48.20;;;;;;4375187;32;19966;-43
2021/11/02 16:40:57;;;;;;;;;;;13.20;48.20;;;;;;4375794;32;19969;-43
2021/11/02 16:43:49;;;;;;;;;;;13.20;48.20;;;;;;4375068;32;19966;-44
2021/11/02 16:46:30;;;;;;;;;;;13.20;48.20;;;;;;4374386;32;19965;-43
2021/11/02 16:49:30;;;;;;;;;;;13.20;48.30;;;;;;4390078;32;20073;-43
2021/11/02 16:51:58;;;;;;;;;;;13.10;48.40;;;;;;4375759;32;20028;-42
2021/11/02 16:54:28;;;;;;;;;;;13.20;48.40;;;;;;4389997;32;20037;-43
2021/11/02 16:57:01;;;;;;;;;;;13.20;48.50;;;;;;4376279;32;19981;-42
2021/11/02 16:59:50;;;;;;;;;;;13.10;48.40;;;;;;4390225;32;19973;-43
2021/11/02 17:02:20;;;;;;;;;;;13.10;48.60;;;;;;4390339;32;20046;-43
2021/11/02 17:05:02;;;;;;;;;;;13.10;48.70;;;;;;4390588;32;19962;-43
2021/11/02 17:07:36;;;;;;;;;;;13.00;48.70;;;;;;4390062;32;20000;-42
2021/11/02 17:10:24;;;;;;;;;;;13.00;48.80;;;;;;4390023;32;20062;-42
2021/11/02 17:12:53;;;;;;;;;;;13.00;48.80;;;;;;4390392;32;19988;-42
2021/11/02 17:15:31;;;;;;;;;;;13.00;48.80;;;;;;4376599;32;19988;-43
2021/11/02 17:17:58;;;;;;;;;;;13.10;48.80;;;;;;4376020;32;20059;-42
2021/11/02 17:20:24;;;;;;;;;;;13.10;48.80;;;;;;4389477;32;20042;-42
2021/11/02 17:22:51;;;;;;;;;;;13.10;48.80;;;;;;4389992;32;19970;-43
2021/11/02 17:25:18;;;;;;;;;;;13.10;48.60;;;;;;4389662;32;19977;-43
2021/11/02 17:27:45;;;;;;;;;;;13.10;48.70;;;;;;4389978;32;19977;-44
2021/11/02 17:30:24;;;;;;;;;;;13.10;48.70;;;;;;4389703;32;20026;-42
2021/11/02 17:32:52;;;;;;;;;;;13.10;48.70;;;;;;4390439;32;19958;-42
2021/11/02 17:35:18;;;;;;;;;;;13.10;48.60;;;;;;4390109;32;20490;-43
2021/11/02 17:37:46;;;;;;;;;;;13.10;48.60;;;;;;4389639;32;19978;-43
2021/11/02 17:40:14;;;;;;;;;;;13.10;48.60;;;;;;4390040;32;20418;-42
2021/11/02 17:42:45;;;;;;;;;;;13.10;48.70;;;;;;4389386;32;20038;-42
2021/11/02 17:45:12;;;;;;;;;;;13.10;48.70;;;;;;4386131;32;19973;-44
2021/11/02 17:48:00;;;;;;;;;;;13.00;48.70;;;;;;4374729;32;20436;-43
2021/11/02 17:50:29;;;;;;;;;;;13.10;48.80;;;;;;4374186;32;20443;-43
2021/11/02 17:52:55;;;;;;;;;;;13.00;48.80;;;;;;4361064;32;19961;-42
2021/11/02 17:55:21;;;;;;;;;;;13.10;48.80;;;;;;4374659;32;19982;-43
2021/11/02 17:57:54;;;;;;;;;;;13.10;48.80;;;;;;4373710;32;20010;-43
2021/11/02 18:00:24;;;;;;;;;;;13.10;48.80;;;;;;4375169;32;20535;-42
2021/11/02 18:02:51;;;;;;;;;;;13.00;48.70;;;;;;4374601;32;19958;-42
2021/11/02 18:05:18;;;;;;;;;;;13.00;48.80;;;;;;4360620;32;20000;-43
2021/11/02 18:07:45;;;;;;;;;;;13.10;48.80;;;;;;4373996;32;20092;-43
2021/11/02 18:10:12;;;;;;;;;;;13.10;48.80;;;;;;4374426;32;19966;-44
2021/11/02 18:12:38;;;;;;;;;;;13.10;48.80;;;;;;4373938;32;20362;-43
2021/11/02 18:15:06;;;;;;;;;;;13.10;48.70;;;;;;4360151;32;19958;-41
2021/11/02 18:17:33;;;;;;;;;;;13.20;48.60;;;;;;4373906;32;20034;-41
2021/11/02 18:20:00;;;;;;;;;;;13.20;48.60;;;;;;4373546;32;19981;-42
2021/11/02 18:22:27;;;;;;;;;;;13.20;48.60;;;;;;4373534;32;20385;-41
2021/11/02 18:24:53;;;;;;;;;;;13.20;48.50;;;;;;4374434;32;19964;-42
2021/11/02 18:27:21;;;;;;;;;;;13.20;48.50;;;;;;4373558;32;20386;-44
2021/11/02 18:29:48;;;;;;;;;;;13.20;48.60;;;;;;4374369;32;19962;-42
2021/11/02 18:32:16;;;;;;;;;;;13.20;48.60;;;;;;4373855;32;20108;-42
2021/11/02 18:34:43;;;;;;;;;;;13.20;48.50;;;;;;4373910;32;20054;-43
2021/11/02 18:37:09;;;;;;;;;;;13.20;48.50;;;;;;4373919;32;19997;-42
2021/11/02 18:39:36;;;;;;;;;;;13.20;48.40;;;;;;4359866;32;19986;-43
2021/11/02 18:42:03;;;;;;;;;;;13.20;48.40;;;;;;4373824;32;20043;-42
2021/11/02 18:44:30;;;;;;;;;;;13.20;48.30;;;;;;4373742;32;19969;-43
2021/11/02 18:46:56;;;;;;;;;;;13.20;48.30;;;;;;4374201;32;20067;-43
2021/11/02 18:49:24;;;;;;;;;;;13.20;48.40;;;;;;4373686;32;19994;-43
2021/11/02 18:51:50;;;;;;;;;;;13.20;48.30;;;;;;4373447;32;20379;-42
2021/11/02 18:54:16;;;;;;;;;;;13.20;48.40;;;;;;4372693;32;19966;-44
2021/11/02 18:56:43;;;;;;;;;;;13.20;48.50;;;;;;4373600;32;19993;-43
2021/11/02 18:59:10;;;;;;;;;;;13.20;48.50;;;;;;4373660;32;19966;-42
2021/11/02 19:01:40;;;;;;;;;;;13.20;48.40;;;;;;4373184;32;20427;-42
2021/11/02 19:04:06;;;;;;;;;;;13.20;48.40;;;;;;4373762;32;19966;-43
2021/11/02 19:06:33;;;;;;;;;;;13.20;48.40;;;;;;4373957;32;19969;-42
2021/11/02 19:08:59;;;;;;;;;;;13.10;48.40;;;;;;4373273;32;19963;-41
2021/11/02 19:11:25;;;;;;;;;;;13.10;48.50;;;;;;4373663;32;20046;-41
2021/11/02 19:13:51;;;;;;;;;;;13.10;48.50;;;;;;4355596;32;19973;-42
2021/11/02 19:16:18;;;;;;;;;;;13.10;48.50;;;;;;4356198;32;19970;-42
2021/11/02 19:18:46;;;;;;;;;;;13.10;48.40;;;;;;4343995;32;19966;-42
2021/11/02 19:21:12;;;;;;;;;;;13.20;48.50;;;;;;4356014;32;20041;-43
2021/11/02 19:23:39;;;;;;;;;;;13.10;48.40;;;;;;4343988;32;19969;-41
2021/11/02 19:26:07;;;;;;;;;;;13.20;48.40;;;;;;4356320;32;19988;-42
2021/11/02 19:28:34;;;;;;;;;;;13.20;48.30;;;;;;4356416;32;20076;-42